PWSweather.com
Personal Weather Stations
Station Observations
SELKIRK1
Ontario, Selkirk, ON N0A 1P0

OntarioSelkirk, ON N0A 1P0

Lat: 42.8083652, Lon: -79.94971040000001

Elevation: 583

Station Type: Acurite 5 in 1

http://gavinsurf.com

High Low Average
Temperature 67.6°F19.8°C 51.6°F10.9°C 58.5°F14.7°C
Dew Point 55.8°F13.2°C 48.1°F8.9°C 52.0°F11.1°C
Winds 17.3 mph 27.8 kmh Calm Calm 6.0 mph SW9.7 kmh SW
Wind Gusts 19.6 mph31.5 kmh -- 8.0 mph12.9 kmh
Humidity 99% 64% 80%
Pressure 31.83 in1077.9 mb 31.83 in1077.9 mb -
Precipitation 0.01 in0.3 mm - -
Hour Temp Dew Point Humidity Winds Wind Gusts Pressure Precip Precip Rate Daily Precip Total
12:00 AM 59.1°F15.1°C 57.4°F14.1°C 94% 2.3 mph NE3.7 kmh NE 4.6 mph7.4 kmh 31.83 in1077.9 mb - 0.00 in0.0 mm 0.00 in0.0 mm
12:10 AM 59.4°F15.2°C 56.4°F13.6°C 90% 4.6 mph W7.4 kmh W 6.9 mph11.1 kmh 31.83 in1077.9 mb - 0.00 in0.0 mm 0.00 in0.0 mm
12:15 AM 59.7°F15.4°C 56.4°F13.6°C 89% 4.6 mph WNW7.4 kmh WNW 6.9 mph11.1 kmh 31.83 in1077.9 mb - 0.00 in0.0 mm 0.00 in0.0 mm
12:20 AM 60.3°F15.7°C 56.1°F13.4°C 86% 3.5 mph WSW5.6 kmh WSW 4.6 mph7.4 kmh 31.83 in1077.9 mb - 0.00 in0.0 mm 0.00 in0.0 mm
12:25 AM 60.6°F15.9°C 56.0°F13.3°C 85% 4.6 mph W7.4 kmh W 8.1 mph13.0 kmh 31.83 in1077.9 mb - 0.00 in0.0 mm 0.00 in0.0 mm
12:30 AM 61.2°F16.2°C 56.0°F13.3°C 83% 3.5 mph NNE5.6 kmh NNE 4.6 mph7.4 kmh 31.83 in1077.9 mb - 0.00 in0.0 mm 0.00 in0.0 mm
12:35 AM 61.2°F16.2°C 56.0°F13.3°C 83% 3.5 mph E5.6 kmh E 3.5 mph5.6 kmh 31.83 in1077.9 mb - 0.00 in0.0 mm 0.00 in0.0 mm
12:40 AM 61.2°F16.2°C 56.0°F13.3°C 83% 4.6 mph NW7.4 kmh NW 5.8 mph9.3 kmh 31.83 in1077.9 mb - 0.00 in0.0 mm 0.00 in0.0 mm
12:45 AM 61.6°F16.4°C 55.7°F13.2°C 81% 5.8 mph WNW9.3 kmh WNW 8.1 mph13.0 kmh 31.83 in1077.9 mb - 0.00 in0.0 mm 0.00 in0.0 mm
12:50 AM 61.9°F16.6°C 55.6°F13.1°C 80% 8.1 mph N13.0 kmh N 10.4 mph16.7 kmh 31.83 in1077.9 mb - 0.00 in0.0 mm 0.00 in0.0 mm
12:55 AM 61.4°F16.3°C 55.6°F13.1°C 81% 6.9 mph NNW11.1 kmh NNW 10.4 mph16.7 kmh 31.83 in1077.9 mb - 0.00 in0.0 mm 0.00 in0.0 mm
01:00 AM 60.9°F16.1°C 55.7°F13.2°C 83% 8.1 mph NNW13.0 kmh NNW 9.2 mph14.8 kmh 31.83 in1077.9 mb - 0.00 in0.0 mm 0.00 in0.0 mm
01:10 AM 60.5°F15.8°C 55.6°F13.1°C 84% 9.2 mph N14.8 kmh N 10.4 mph16.7 kmh 31.83 in1077.9 mb - 0.00 in0.0 mm 0.00 in0.0 mm
01:15 AM 59.9°F15.5°C 55.3°F12.9°C 85% 9.2 mph NNE14.8 kmh NNE 10.4 mph16.7 kmh 31.83 in1077.9 mb - 0.00 in0.0 mm 0.00 in0.0 mm
01:20 AM 59.4°F15.2°C 55.3°F12.9°C 86% 8.1 mph N13.0 kmh N 9.2 mph14.8 kmh 31.83 in1077.9 mb - 0.00 in0.0 mm 0.00 in0.0 mm
01:25 AM 59.0°F15.0°C 55.1°F12.8°C 87% 6.9 mph N11.1 kmh N 6.9 mph11.1 kmh 31.83 in1077.9 mb - 0.00 in0.0 mm 0.00 in0.0 mm
01:30 AM 58.7°F14.8°C 54.9°F12.7°C 87% 4.6 mph NNE7.4 kmh NNE 5.8 mph9.3 kmh 31.83 in1077.9 mb - 0.00 in0.0 mm 0.00 in0.0 mm
01:35 AM 58.1°F14.5°C 54.3°F12.4°C 87% 4.6 mph N7.4 kmh N 4.6 mph7.4 kmh 31.83 in1077.9 mb - 0.00 in0.0 mm 0.00 in0.0 mm
01:40 AM 57.5°F14.2°C 54.0°F12.2°C 88% 4.6 mph N7.4 kmh N 5.8 mph9.3 kmh 31.83 in1077.9 mb - 0.00 in0.0 mm 0.00 in0.0 mm
01:45 AM 56.8°F13.8°C 53.6°F12.0°C 89% 5.8 mph N9.3 kmh N 5.8 mph9.3 kmh 31.83 in1077.9 mb - 0.00 in0.0 mm 0.00 in0.0 mm
01:50 AM 56.2°F13.4°C 53.0°F11.7°C 89% 6.9 mph N11.1 kmh N 8.1 mph13.0 kmh 31.83 in1077.9 mb - 0.00 in0.0 mm 0.00 in0.0 mm
01:55 AM 56.0°F13.3°C 52.8°F11.6°C 89% 5.8 mph N9.3 kmh N 5.8 mph9.3 kmh 31.83 in1077.9 mb - 0.00 in0.0 mm 0.00 in0.0 mm
02:00 AM 55.8°F13.2°C 52.6°F11.4°C 89% 4.6 mph NNE7.4 kmh NNE 5.8 mph9.3 kmh 31.83 in1077.9 mb - 0.00 in0.0 mm 0.00 in0.0 mm
02:10 AM 55.4°F13.0°C 52.2°F11.2°C 89% 1.2 mph ENE1.9 kmh ENE 1.2 mph1.9 kmh 31.83 in1077.9 mb - 0.00 in0.0 mm 0.00 in0.0 mm
02:15 AM 55.0°F12.8°C 52.1°F11.2°C 90% 4.6 mph NNE7.4 kmh NNE 4.6 mph7.4 kmh 31.83 in1077.9 mb - 0.00 in0.0 mm 0.00 in0.0 mm
02:20 AM 54.9°F12.7°C 52.0°F11.1°C 90% 1.2 mph N1.9 kmh N 3.5 mph5.6 kmh 31.83 in1077.9 mb - 0.00 in0.0 mm 0.00 in0.0 mm
02:25 AM 54.9°F12.7°C 52.0°F11.1°C 90% Calm Calm -- 31.83 in1077.9 mb - 0.00 in0.0 mm 0.00 in0.0 mm
02:30 AM 54.7°F12.6°C 51.8°F11.0°C 90% 1.2 mph NE1.9 kmh NE 1.2 mph1.9 kmh 31.83 in1077.9 mb - 0.00 in0.0 mm 0.00 in0.0 mm
02:35 AM 54.9°F12.7°C 52.0°F11.1°C 90% 5.8 mph N9.3 kmh N 11.5 mph18.5 kmh 31.83 in1077.9 mb - 0.00 in0.0 mm 0.00 in0.0 mm
02:40 AM 55.6°F13.1°C 52.4°F11.3°C 89% 13.8 mph N22.2 kmh N 15.0 mph24.1 kmh 31.83 in1077.9 mb - 0.00 in0.0 mm 0.00 in0.0 mm
02:45 AM 55.3°F12.9°C 52.4°F11.3°C 90% 11.5 mph N18.5 kmh N 13.8 mph22.2 kmh 31.83 in1077.9 mb - 0.00 in0.0 mm 0.00 in0.0 mm
02:50 AM 54.9°F12.7°C 52.0°F11.1°C 90% 11.5 mph N18.5 kmh N 11.5 mph18.5 kmh 31.83 in1077.9 mb - 0.00 in0.0 mm 0.00 in0.0 mm
02:55 AM 54.5°F12.5°C 51.6°F10.9°C 90% 11.5 mph NNE18.5 kmh NNE 12.7 mph20.4 kmh 31.83 in1077.9 mb - 0.00 in0.0 mm 0.00 in0.0 mm
03:00 AM 54.2°F12.3°C 51.9°F11.1°C 92% 8.1 mph NNE13.0 kmh NNE 9.2 mph14.8 kmh 31.83 in1077.9 mb - 0.00 in0.0 mm 0.00 in0.0 mm
03:10 AM 53.7°F12.1°C 51.7°F10.9°C 93% 9.2 mph N14.8 kmh N 10.4 mph16.7 kmh 31.83 in1077.9 mb - 0.00 in0.0 mm 0.00 in0.0 mm
03:15 AM 53.4°F11.9°C 51.7°F10.9°C 94% 8.1 mph N13.0 kmh N 10.4 mph16.7 kmh 31.83 in1077.9 mb - 0.00 in0.0 mm 0.00 in0.0 mm
03:20 AM 53.4°F11.9°C 51.7°F10.9°C 94% 6.9 mph N11.1 kmh N 6.9 mph11.1 kmh 31.83 in1077.9 mb - 0.00 in0.0 mm 0.00 in0.0 mm
03:25 AM 53.3°F11.8°C 51.6°F10.9°C 94% 8.1 mph NNE13.0 kmh NNE 8.1 mph13.0 kmh 31.83 in1077.9 mb - 0.00 in0.0 mm 0.00 in0.0 mm
03:30 AM 53.3°F11.8°C 51.3°F10.7°C 93% 5.8 mph N9.3 kmh N 6.9 mph11.1 kmh 31.83 in1077.9 mb - 0.00 in0.0 mm 0.00 in0.0 mm
03:35 AM 53.3°F11.8°C 51.3°F10.7°C 93% 5.8 mph N9.3 kmh N 6.9 mph11.1 kmh 31.83 in1077.9 mb - 0.00 in0.0 mm 0.00 in0.0 mm
03:40 AM 53.3°F11.8°C 51.3°F10.7°C 93% 4.6 mph NNE7.4 kmh NNE 5.8 mph9.3 kmh 31.83 in1077.9 mb - 0.00 in0.0 mm 0.00 in0.0 mm
03:45 AM 53.3°F11.8°C 51.6°F10.9°C 94% 4.6 mph N7.4 kmh N 4.6 mph7.4 kmh 31.83 in1077.9 mb - 0.00 in0.0 mm 0.00 in0.0 mm
03:50 AM 53.1°F11.7°C 51.7°F10.9°C 95% 4.6 mph NNE7.4 kmh NNE 4.6 mph7.4 kmh 31.83 in1077.9 mb - 0.00 in0.0 mm 0.00 in0.0 mm
03:55 AM 52.9°F11.6°C 51.5°F10.8°C 95% 5.8 mph NNE9.3 kmh NNE 6.9 mph11.1 kmh 31.83 in1077.9 mb - 0.01 in0.3 mm 0.01 in0.3 mm
04:00 AM 52.7°F11.5°C 51.6°F10.9°C 96% 5.8 mph NNE9.3 kmh NNE 5.8 mph9.3 kmh 31.83 in1077.9 mb - 0.01 in0.3 mm 0.01 in0.3 mm
04:10 AM 52.5°F11.4°C 51.4°F10.8°C 96% Calm Calm -- 31.83 in1077.9 mb - 0.01 in0.3 mm 0.01 in0.3 mm
04:15 AM 52.5°F11.4°C 51.7°F10.9°C 97% Calm Calm -- 31.83 in1077.9 mb - 0.01 in0.3 mm 0.01 in0.3 mm
04:20 AM 52.5°F11.4°C 51.7°F10.9°C 97% Calm Calm -- 31.83 in1077.9 mb - 0.01 in0.3 mm 0.01 in0.3 mm
04:25 AM 52.5°F11.4°C 51.7°F10.9°C 97% Calm Calm -- 31.83 in1077.9 mb - 0.01 in0.3 mm 0.01 in0.3 mm
04:30 AM 52.5°F11.4°C 51.9°F11.1°C 98% Calm Calm -- 31.83 in1077.9 mb - 0.01 in0.3 mm 0.01 in0.3 mm
04:35 AM 52.4°F11.3°C 51.8°F11.0°C 98% 1.2 mph SSW1.9 kmh SSW 2.3 mph3.7 kmh 31.83 in1077.9 mb - 0.01 in0.3 mm 0.01 in0.3 mm
04:40 AM 52.4°F11.3°C 51.8°F11.0°C 98% Calm Calm -- 31.83 in1077.9 mb - 0.01 in0.3 mm 0.01 in0.3 mm
04:45 AM 52.4°F11.3°C 51.8°F11.0°C 98% Calm Calm -- 31.83 in1077.9 mb - 0.01 in0.3 mm 0.01 in0.3 mm
04:50 AM 52.0°F11.1°C 51.4°F10.8°C 98% 1.2 mph SSW1.9 kmh SSW 1.2 mph1.9 kmh 31.83 in1077.9 mb - 0.01 in0.3 mm 0.01 in0.3 mm
04:55 AM 52.0°F11.1°C 51.7°F10.9°C 99% Calm Calm -- 31.83 in1077.9 mb - 0.01 in0.3 mm 0.01 in0.3 mm
05:00 AM 51.8°F11.0°C 51.5°F10.8°C 99% 1.2 mph SW1.9 kmh SW 2.3 mph3.7 kmh 31.83 in1077.9 mb - 0.00 in0.0 mm 0.01 in0.3 mm
05:10 AM 51.6°F10.9°C 51.3°F10.7°C 99% Calm Calm 1.2 mph1.9 kmh 31.83 in1077.9 mb - 0.00 in0.0 mm 0.01 in0.3 mm
05:15 AM 51.6°F10.9°C 51.3°F10.7°C 99% 1.2 mph SW1.9 kmh SW 1.2 mph1.9 kmh 31.83 in1077.9 mb - 0.00 in0.0 mm 0.01 in0.3 mm
05:20 AM 51.6°F10.9°C 51.3°F10.7°C 99% Calm Calm -- 31.83 in1077.9 mb - 0.00 in0.0 mm 0.01 in0.3 mm
05:25 AM 51.8°F11.0°C 51.5°F10.8°C 99% 2.3 mph SW3.7 kmh SW 2.3 mph3.7 kmh 31.83 in1077.9 mb - 0.00 in0.0 mm 0.01 in0.3 mm
05:30 AM 51.6°F10.9°C 51.3°F10.7°C 99% Calm Calm 1.2 mph1.9 kmh 31.83 in1077.9 mb - 0.00 in0.0 mm 0.01 in0.3 mm
05:35 AM 51.8°F11.0°C 51.5°F10.8°C 99% 2.3 mph SW3.7 kmh SW 2.3 mph3.7 kmh 31.83 in1077.9 mb - 0.00 in0.0 mm 0.01 in0.3 mm
05:40 AM 51.8°F11.0°C 51.5°F10.8°C 99% 1.2 mph NNW1.9 kmh NNW 2.3 mph3.7 kmh 31.83 in1077.9 mb - 0.00 in0.0 mm 0.01 in0.3 mm
05:45 AM 51.8°F11.0°C 51.5°F10.8°C 99% 1.2 mph N1.9 kmh N 2.3 mph3.7 kmh 31.83 in1077.9 mb - 0.00 in0.0 mm 0.01 in0.3 mm
05:50 AM 52.0°F11.1°C 51.7°F10.9°C 99% 1.2 mph WNW1.9 kmh WNW 1.2 mph1.9 kmh 31.83 in1077.9 mb - 0.00 in0.0 mm 0.01 in0.3 mm
05:55 AM 52.2°F11.2°C 51.9°F11.1°C 99% 2.3 mph WSW3.7 kmh WSW 3.5 mph5.6 kmh 31.83 in1077.9 mb - 0.00 in0.0 mm 0.01 in0.3 mm
06:00 AM 52.3°F11.3°C 52.0°F11.1°C 99% 1.2 mph W1.9 kmh W 2.3 mph3.7 kmh 31.83 in1077.9 mb - 0.00 in0.0 mm 0.01 in0.3 mm
06:10 AM 52.4°F11.3°C 52.1°F11.2°C 99% 2.3 mph W3.7 kmh W 3.5 mph5.6 kmh 31.83 in1077.9 mb - 0.00 in0.0 mm 0.01 in0.3 mm
06:15 AM 52.5°F11.4°C 52.2°F11.2°C 99% 1.2 mph NW1.9 kmh NW 2.3 mph3.7 kmh 31.83 in1077.9 mb - 0.00 in0.0 mm 0.01 in0.3 mm
06:20 AM 52.9°F11.6°C 52.3°F11.3°C 98% 1.2 mph NNE1.9 kmh NNE 1.2 mph1.9 kmh 31.83 in1077.9 mb - 0.00 in0.0 mm 0.01 in0.3 mm
06:25 AM 53.3°F11.8°C 51.9°F11.1°C 95% 3.5 mph NW5.6 kmh NW 4.6 mph7.4 kmh 31.83 in1077.9 mb - 0.00 in0.0 mm 0.01 in0.3 mm
06:30 AM 53.6°F12.0°C 51.6°F10.9°C 93% 2.3 mph SE3.7 kmh SE 4.6 mph7.4 kmh 31.83 in1077.9 mb - 0.00 in0.0 mm 0.01 in0.3 mm
06:35 AM 54.2°F12.3°C 51.3°F10.7°C 90% 3.5 mph NW5.6 kmh NW 4.6 mph7.4 kmh 31.83 in1077.9 mb - 0.00 in0.0 mm 0.01 in0.3 mm
06:40 AM 54.6°F12.6°C 51.4°F10.8°C 89% 3.5 mph W5.6 kmh W 3.5 mph5.6 kmh 31.83 in1077.9 mb - 0.00 in0.0 mm 0.01 in0.3 mm
06:45 AM 54.9°F12.7°C 51.4°F10.8°C 88% 3.5 mph NW5.6 kmh NW 3.5 mph5.6 kmh 31.83 in1077.9 mb - 0.00 in0.0 mm 0.01 in0.3 mm
06:50 AM 55.2°F12.9°C 51.4°F10.8°C 87% 3.5 mph N5.6 kmh N 3.5 mph5.6 kmh 31.83 in1077.9 mb - 0.00 in0.0 mm 0.01 in0.3 mm
06:55 AM 55.5°F13.1°C 51.4°F10.8°C 86% 3.5 mph NW5.6 kmh NW 3.5 mph5.6 kmh 31.83 in1077.9 mb - 0.00 in0.0 mm 0.01 in0.3 mm
07:00 AM 55.8°F13.2°C 51.3°F10.7°C 85% 3.5 mph NW5.6 kmh NW 4.6 mph7.4 kmh 31.83 in1077.9 mb - 0.00 in0.0 mm 0.01 in0.3 mm
07:10 AM 56.0°F13.3°C 51.9°F11.1°C 86% 3.5 mph 5.6 kmh 4.6 mph7.4 kmh 31.83 in1077.9 mb - 0.00 in0.0 mm 0.01 in0.3 mm
07:15 AM 56.1°F13.4°C 51.6°F10.9°C 85% 4.6 mph N7.4 kmh N 4.6 mph7.4 kmh 31.83 in1077.9 mb - 0.00 in0.0 mm 0.01 in0.3 mm
07:20 AM 56.1°F13.4°C 51.6°F10.9°C 85% 4.6 mph NW7.4 kmh NW 5.8 mph9.3 kmh 31.83 in1077.9 mb - 0.00 in0.0 mm 0.01 in0.3 mm
07:25 AM 56.5°F13.6°C 52.0°F11.1°C 85% 2.3 mph SW3.7 kmh SW 2.3 mph3.7 kmh 31.83 in1077.9 mb - 0.00 in0.0 mm 0.01 in0.3 mm
07:30 AM 56.7°F13.7°C 52.5°F11.4°C 86% 4.6 mph NW7.4 kmh NW 5.8 mph9.3 kmh 31.83 in1077.9 mb - 0.00 in0.0 mm 0.01 in0.3 mm
07:35 AM 56.9°F13.8°C 52.4°F11.3°C 85% 3.5 mph NNW5.6 kmh NNW 4.6 mph7.4 kmh 31.83 in1077.9 mb - 0.00 in0.0 mm 0.01 in0.3 mm
07:50 AM 57.4°F14.1°C 51.3°F10.7°C 80% 8.1 mph NW13.0 kmh NW 9.2 mph14.8 kmh 31.83 in1077.9 mb - 0.00 in0.0 mm 0.01 in0.3 mm
07:55 AM 57.5°F14.2°C 51.7°F10.9°C 81% 5.8 mph NNW9.3 kmh NNW 8.1 mph13.0 kmh 31.83 in1077.9 mb - 0.00 in0.0 mm 0.01 in0.3 mm
08:00 AM 58.0°F14.4°C 51.8°F11.0°C 80% 5.8 mph NW9.3 kmh NW 6.9 mph11.1 kmh 31.83 in1077.9 mb - 0.00 in0.0 mm 0.01 in0.3 mm
08:10 AM 58.5°F14.7°C 51.3°F10.7°C 77% 5.8 mph N9.3 kmh N 8.1 mph13.0 kmh 31.83 in1077.9 mb - 0.00 in0.0 mm 0.01 in0.3 mm
08:15 AM 58.7°F14.8°C 51.5°F10.8°C 77% 5.8 mph NNW9.3 kmh NNW 6.9 mph11.1 kmh 31.83 in1077.9 mb - 0.00 in0.0 mm 0.01 in0.3 mm
08:20 AM 59.2°F15.1°C 52.3°F11.3°C 78% 6.9 mph N11.1 kmh N 9.2 mph14.8 kmh 31.83 in1077.9 mb - 0.00 in0.0 mm 0.01 in0.3 mm
08:25 AM 59.4°F15.2°C 51.5°F10.8°C 75% 8.1 mph NW13.0 kmh NW 11.5 mph18.5 kmh 31.83 in1077.9 mb - 0.00 in0.0 mm 0.01 in0.3 mm
08:30 AM 59.6°F15.3°C 51.3°F10.7°C 74% 5.8 mph NNW9.3 kmh NNW 8.1 mph13.0 kmh 31.83 in1077.9 mb - 0.00 in0.0 mm 0.01 in0.3 mm
08:35 AM 59.7°F15.4°C 51.4°F10.8°C 74% 8.1 mph NW13.0 kmh NW 13.8 mph22.2 kmh 31.83 in1077.9 mb - 0.00 in0.0 mm 0.01 in0.3 mm
08:40 AM 60.2°F15.7°C 51.9°F11.1°C 74% 8.1 mph N13.0 kmh N 10.4 mph16.7 kmh 31.83 in1077.9 mb - 0.00 in0.0 mm 0.01 in0.3 mm
08:45 AM 60.5°F15.8°C 51.8°F11.0°C 73% 8.1 mph N13.0 kmh N 11.5 mph18.5 kmh 31.83 in1077.9 mb - 0.00 in0.0 mm 0.01 in0.3 mm
08:50 AM 61.0°F16.1°C 52.2°F11.2°C 73% 8.1 mph N13.0 kmh N 11.5 mph18.5 kmh 31.83 in1077.9 mb - 0.00 in0.0 mm 0.01 in0.3 mm
08:55 AM 61.0°F16.1°C 51.9°F11.1°C 72% 9.2 mph N14.8 kmh N 12.7 mph20.4 kmh 31.83 in1077.9 mb - 0.00 in0.0 mm 0.01 in0.3 mm
09:00 AM 61.4°F16.3°C 51.9°F11.1°C 71% 8.1 mph NW13.0 kmh NW 11.5 mph18.5 kmh 31.83 in1077.9 mb - 0.00 in0.0 mm 0.01 in0.3 mm
09:10 AM 61.9°F16.6°C 52.0°F11.1°C 70% 5.8 mph NW9.3 kmh NW 5.8 mph9.3 kmh 31.83 in1077.9 mb - 0.00 in0.0 mm 0.01 in0.3 mm
09:15 AM 61.8°F16.6°C 51.9°F11.1°C 70% 6.9 mph NW11.1 kmh NW 8.1 mph13.0 kmh 31.83 in1077.9 mb - 0.00 in0.0 mm 0.01 in0.3 mm
09:20 AM 62.1°F16.7°C 52.2°F11.2°C 70% 10.4 mph N16.7 kmh N 12.7 mph20.4 kmh 31.83 in1077.9 mb - 0.00 in0.0 mm 0.01 in0.3 mm
09:25 AM 62.0°F16.7°C 52.5°F11.4°C 71% 5.8 mph NNW9.3 kmh NNW 8.1 mph13.0 kmh 31.83 in1077.9 mb - 0.00 in0.0 mm 0.01 in0.3 mm
09:30 AM 63.1°F17.3°C 54.0°F12.2°C 72% 5.8 mph N9.3 kmh N 9.2 mph14.8 kmh 31.83 in1077.9 mb - 0.00 in0.0 mm 0.01 in0.3 mm
09:35 AM 63.3°F17.4°C 52.9°F11.6°C 69% 9.2 mph N14.8 kmh N 6.9 mph11.1 kmh 31.83 in1077.9 mb - 0.00 in0.0 mm 0.01 in0.3 mm
09:40 AM 63.2°F17.3°C 52.8°F11.6°C 69% 6.9 mph N11.1 kmh N 9.2 mph14.8 kmh 31.83 in1077.9 mb - 0.00 in0.0 mm 0.01 in0.3 mm
09:45 AM 62.8°F17.1°C 52.1°F11.2°C 68% 4.6 mph W7.4 kmh W 5.8 mph9.3 kmh 31.83 in1077.9 mb - 0.00 in0.0 mm 0.01 in0.3 mm
09:50 AM 63.1°F17.3°C 52.7°F11.5°C 69% 4.6 mph NW7.4 kmh NW 5.8 mph9.3 kmh 31.83 in1077.9 mb - 0.00 in0.0 mm 0.01 in0.3 mm
09:55 AM 63.6°F17.6°C 52.4°F11.3°C 67% 8.1 mph N13.0 kmh N 10.4 mph16.7 kmh 31.83 in1077.9 mb - 0.00 in0.0 mm 0.01 in0.3 mm
10:00 AM 63.5°F17.5°C 52.4°F11.3°C 67% 8.1 mph NW13.0 kmh NW 13.8 mph22.2 kmh 31.83 in1077.9 mb - 0.00 in0.0 mm 0.01 in0.3 mm
10:10 AM 63.9°F17.7°C 53.1°F11.7°C 68% 5.8 mph NNW9.3 kmh NNW 9.2 mph14.8 kmh 31.83 in1077.9 mb - 0.00 in0.0 mm 0.01 in0.3 mm
10:15 AM 63.8°F17.7°C 53.0°F11.7°C 68% 5.8 mph NNW9.3 kmh NNW 8.1 mph13.0 kmh 31.83 in1077.9 mb - 0.00 in0.0 mm 0.01 in0.3 mm
10:20 AM 64.2°F17.9°C 53.4°F11.9°C 68% 5.8 mph NW9.3 kmh NW 6.9 mph11.1 kmh 31.83 in1077.9 mb - 0.00 in0.0 mm 0.01 in0.3 mm
10:25 AM 64.4°F18.0°C 53.2°F11.8°C 67% 6.9 mph NW11.1 kmh NW 8.1 mph13.0 kmh 31.83 in1077.9 mb - 0.00 in0.0 mm 0.01 in0.3 mm
10:30 AM 64.6°F18.1°C 53.4°F11.9°C 67% 9.2 mph NW14.8 kmh NW 13.8 mph22.2 kmh 31.83 in1077.9 mb - 0.00 in0.0 mm 0.01 in0.3 mm
10:35 AM 65.0°F18.3°C 53.3°F11.8°C 66% 8.1 mph NNW13.0 kmh NNW 15.0 mph24.1 kmh 31.83 in1077.9 mb - 0.00 in0.0 mm 0.01 in0.3 mm
10:40 AM 65.0°F18.3°C 53.8°F12.1°C 67% 5.8 mph NW9.3 kmh NW 8.1 mph13.0 kmh 31.83 in1077.9 mb - 0.00 in0.0 mm 0.01 in0.3 mm
10:45 AM 64.6°F18.1°C 53.4°F11.9°C 67% 4.6 mph NNE7.4 kmh NNE 9.2 mph14.8 kmh 31.83 in1077.9 mb - 0.00 in0.0 mm 0.01 in0.3 mm
10:50 AM 65.3°F18.5°C 54.8°F12.7°C 69% 5.8 mph N9.3 kmh N 12.7 mph20.4 kmh 31.83 in1077.9 mb - 0.00 in0.0 mm 0.01 in0.3 mm
10:55 AM 65.8°F18.8°C 55.0°F12.8°C 68% 6.9 mph NW11.1 kmh NW 10.4 mph16.7 kmh 31.83 in1077.9 mb - 0.00 in0.0 mm 0.01 in0.3 mm
11:00 AM 64.8°F18.2°C 54.0°F12.2°C 68% 11.5 mph NW18.5 kmh NW 13.8 mph22.2 kmh 31.83 in1077.9 mb - 0.00 in0.0 mm 0.01 in0.3 mm
11:10 AM 64.7°F18.2°C 54.3°F12.4°C 69% 9.2 mph NNW14.8 kmh NNW 9.2 mph14.8 kmh 31.83 in1077.9 mb - 0.00 in0.0 mm 0.01 in0.3 mm
11:15 AM 64.0°F17.8°C 53.6°F12.0°C 69% 6.9 mph NW11.1 kmh NW 8.1 mph13.0 kmh 31.83 in1077.9 mb - 0.00 in0.0 mm 0.01 in0.3 mm
11:20 AM 64.9°F18.3°C 54.1°F12.3°C 68% 9.2 mph 14.8 kmh 10.4 mph16.7 kmh 31.83 in1077.9 mb - 0.00 in0.0 mm 0.01 in0.3 mm
11:25 AM 65.6°F18.7°C 55.1°F12.8°C 69% 8.1 mph N13.0 kmh N 15.0 mph24.1 kmh 31.83 in1077.9 mb - 0.00 in0.0 mm 0.01 in0.3 mm
11:30 AM 64.2°F17.9°C 53.9°F12.2°C 69% 6.9 mph N11.1 kmh N 10.4 mph16.7 kmh 31.83 in1077.9 mb - 0.00 in0.0 mm 0.01 in0.3 mm
11:35 AM 64.6°F18.1°C 54.6°F12.6°C 70% 4.6 mph NW7.4 kmh NW 5.8 mph9.3 kmh 31.83 in1077.9 mb - 0.00 in0.0 mm 0.01 in0.3 mm
11:40 AM 65.0°F18.3°C 54.6°F12.6°C 69% 6.9 mph WNW11.1 kmh WNW 10.4 mph16.7 kmh 31.83 in1077.9 mb - 0.00 in0.0 mm 0.01 in0.3 mm
11:45 AM 66.2°F19.0°C 55.3°F12.9°C 68% 12.7 mph N20.4 kmh N 16.1 mph25.9 kmh 31.83 in1077.9 mb - 0.00 in0.0 mm 0.01 in0.3 mm
11:50 AM 66.8°F19.3°C 55.5°F13.1°C 67% 11.5 mph N18.5 kmh N 16.1 mph25.9 kmh 31.83 in1077.9 mb - 0.00 in0.0 mm 0.01 in0.3 mm
11:55 AM 67.1°F19.5°C 55.8°F13.2°C 67% 5.8 mph SW9.3 kmh SW 6.9 mph11.1 kmh 31.83 in1077.9 mb - 0.00 in0.0 mm 0.01 in0.3 mm
12:00 PM 67.6°F19.8°C 55.0°F12.8°C 64% 5.8 mph NW9.3 kmh NW 9.2 mph14.8 kmh 31.83 in1077.9 mb - 0.00 in0.0 mm 0.01 in0.3 mm
12:10 PM 66.0°F18.9°C 55.1°F12.8°C 68% 5.8 mph NW9.3 kmh NW 9.2 mph14.8 kmh 31.83 in1077.9 mb - 0.00 in0.0 mm 0.01 in0.3 mm
12:15 PM 66.6°F19.2°C 54.5°F12.5°C 65% 4.6 mph NW7.4 kmh NW 11.5 mph18.5 kmh 31.83 in1077.9 mb - 0.00 in0.0 mm 0.01 in0.3 mm
12:20 PM 65.7°F18.7°C 54.8°F12.7°C 68% 5.8 mph NW9.3 kmh NW 5.8 mph9.3 kmh 31.83 in1077.9 mb - 0.00 in0.0 mm 0.01 in0.3 mm
12:25 PM 65.3°F18.5°C 54.9°F12.7°C 69% 4.6 mph NW7.4 kmh NW 5.8 mph9.3 kmh 31.83 in1077.9 mb - 0.00 in0.0 mm 0.01 in0.3 mm
12:30 PM 65.0°F18.3°C 54.6°F12.6°C 69% 10.4 mph N16.7 kmh N 16.1 mph25.9 kmh 31.83 in1077.9 mb - 0.00 in0.0 mm 0.01 in0.3 mm
12:35 PM 64.6°F18.1°C 54.2°F12.3°C 69% 8.1 mph W13.0 kmh W 10.4 mph16.7 kmh 31.83 in1077.9 mb - 0.00 in0.0 mm 0.01 in0.3 mm
12:40 PM 63.9°F17.7°C 53.9°F12.2°C 70% 8.1 mph NNW13.0 kmh NNW 10.4 mph16.7 kmh 31.83 in1077.9 mb - 0.00 in0.0 mm 0.01 in0.3 mm
12:45 PM 63.7°F17.6°C 53.7°F12.1°C 70% 8.1 mph N13.0 kmh N 9.2 mph14.8 kmh 31.83 in1077.9 mb - 0.00 in0.0 mm 0.01 in0.3 mm
12:50 PM 63.9°F17.7°C 54.3°F12.4°C 71% 5.8 mph N9.3 kmh N 9.2 mph14.8 kmh 31.83 in1077.9 mb - 0.00 in0.0 mm 0.01 in0.3 mm
12:55 PM 64.5°F18.1°C 54.9°F12.7°C 71% 8.1 mph NNW13.0 kmh NNW 11.5 mph18.5 kmh 31.83 in1077.9 mb - 0.00 in0.0 mm 0.01 in0.3 mm
01:00 PM 63.9°F17.7°C 54.3°F12.4°C 71% 8.1 mph NNW13.0 kmh NNW 13.8 mph22.2 kmh 31.83 in1077.9 mb - 0.00 in0.0 mm 0.01 in0.3 mm
01:10 PM 64.7°F18.2°C 54.7°F12.6°C 70% 8.1 mph NW13.0 kmh NW 10.4 mph16.7 kmh 31.83 in1077.9 mb - 0.00 in0.0 mm 0.01 in0.3 mm
01:15 PM 65.0°F18.3°C 55.0°F12.8°C 70% 9.2 mph ENE14.8 kmh ENE 12.7 mph20.4 kmh 31.83 in1077.9 mb - 0.00 in0.0 mm 0.01 in0.3 mm
01:20 PM 66.2°F19.0°C 54.5°F12.5°C 66% 4.6 mph NW7.4 kmh NW 9.2 mph14.8 kmh 31.83 in1077.9 mb - 0.00 in0.0 mm 0.01 in0.3 mm
01:25 PM 65.9°F18.8°C 55.0°F12.8°C 68% 6.9 mph NW11.1 kmh NW 10.4 mph16.7 kmh 31.83 in1077.9 mb - 0.00 in0.0 mm 0.01 in0.3 mm
01:30 PM 64.8°F18.2°C 54.8°F12.7°C 70% 10.4 mph N16.7 kmh N 12.7 mph20.4 kmh 31.83 in1077.9 mb - 0.00 in0.0 mm 0.01 in0.3 mm
01:35 PM 64.8°F18.2°C 54.8°F12.7°C 70% 6.9 mph NW11.1 kmh NW 10.4 mph16.7 kmh 31.83 in1077.9 mb - 0.00 in0.0 mm 0.01 in0.3 mm
01:40 PM 66.0°F18.9°C 54.7°F12.6°C 67% 6.9 mph N11.1 kmh N 10.4 mph16.7 kmh 31.83 in1077.9 mb - 0.00 in0.0 mm 0.01 in0.3 mm
01:45 PM 66.0°F18.9°C 54.7°F12.6°C 67% 10.4 mph N16.7 kmh N 15.0 mph24.1 kmh 31.83 in1077.9 mb - 0.00 in0.0 mm 0.01 in0.3 mm
01:50 PM 65.6°F18.7°C 55.2°F12.9°C 69% 10.4 mph NNE16.7 kmh NNE 13.8 mph22.2 kmh 31.83 in1077.9 mb - 0.00 in0.0 mm 0.01 in0.3 mm
01:55 PM 65.4°F18.6°C 54.6°F12.6°C 68% 6.9 mph N11.1 kmh N 6.9 mph11.1 kmh 31.83 in1077.9 mb - 0.00 in0.0 mm 0.01 in0.3 mm
02:00 PM 65.4°F18.6°C 54.5°F12.5°C 68% 10.4 mph NW16.7 kmh NW 12.7 mph20.4 kmh 31.83 in1077.9 mb - 0.00 in0.0 mm 0.01 in0.3 mm
02:10 PM 65.8°F18.8°C 54.5°F12.5°C 67% 8.1 mph N13.0 kmh N 10.4 mph16.7 kmh 31.83 in1077.9 mb - 0.00 in0.0 mm 0.01 in0.3 mm
02:15 PM 64.7°F18.2°C 53.9°F12.2°C 68% 5.8 mph NW9.3 kmh NW 5.8 mph9.3 kmh 31.83 in1077.9 mb - 0.00 in0.0 mm 0.01 in0.3 mm
02:20 PM 64.9°F18.3°C 54.5°F12.5°C 69% 9.2 mph N14.8 kmh N 11.5 mph18.5 kmh 31.83 in1077.9 mb - 0.00 in0.0 mm 0.01 in0.3 mm
02:25 PM 64.5°F18.1°C 54.1°F12.3°C 69% 6.9 mph NNW11.1 kmh NNW 8.1 mph13.0 kmh 31.83 in1077.9 mb - 0.00 in0.0 mm 0.01 in0.3 mm
02:30 PM 64.6°F18.1°C 54.5°F12.5°C 70% 6.9 mph NNW11.1 kmh NNW 8.1 mph13.0 kmh 31.83 in1077.9 mb - 0.00 in0.0 mm 0.01 in0.3 mm
02:35 PM 65.6°F18.7°C 54.7°F12.6°C 68% 3.5 mph NW5.6 kmh NW 4.6 mph7.4 kmh 31.83 in1077.9 mb - 0.00 in0.0 mm 0.01 in0.3 mm
02:40 PM 64.6°F18.1°C 54.2°F12.3°C 69% 9.2 mph N14.8 kmh N 11.5 mph18.5 kmh 31.83 in1077.9 mb - 0.00 in0.0 mm 0.01 in0.3 mm
02:45 PM 63.3°F17.4°C 54.1°F12.3°C 72% 5.8 mph N9.3 kmh N 5.8 mph9.3 kmh 31.83 in1077.9 mb - 0.00 in0.0 mm 0.01 in0.3 mm
02:50 PM 64.5°F18.1°C 54.5°F12.5°C 70% 8.1 mph NW13.0 kmh NW 9.2 mph14.8 kmh 31.83 in1077.9 mb - 0.00 in0.0 mm 0.01 in0.3 mm
02:55 PM 64.2°F17.9°C 54.6°F12.6°C 71% 4.6 mph N7.4 kmh N 5.8 mph9.3 kmh 31.83 in1077.9 mb - 0.00 in0.0 mm 0.01 in0.3 mm
03:00 PM 64.0°F17.8°C 54.4°F12.4°C 71% 8.1 mph N13.0 kmh N 9.2 mph14.8 kmh 31.83 in1077.9 mb - 0.00 in0.0 mm 0.01 in0.3 mm
03:10 PM 63.2°F17.3°C 54.0°F12.2°C 72% 5.8 mph NNW9.3 kmh NNW 5.8 mph9.3 kmh 31.83 in1077.9 mb - 0.00 in0.0 mm 0.01 in0.3 mm
03:15 PM 63.6°F17.6°C 54.1°F12.3°C 71% 4.6 mph N7.4 kmh N 5.8 mph9.3 kmh 31.83 in1077.9 mb - 0.00 in0.0 mm 0.01 in0.3 mm
03:20 PM 63.3°F17.4°C 54.1°F12.3°C 72% 4.6 mph W7.4 kmh W 3.5 mph5.6 kmh 31.83 in1077.9 mb - 0.00 in0.0 mm 0.01 in0.3 mm
03:25 PM 63.2°F17.3°C 53.6°F12.0°C 71% 3.5 mph NNW5.6 kmh NNW 5.8 mph9.3 kmh 31.83 in1077.9 mb - 0.00 in0.0 mm 0.01 in0.3 mm
03:30 PM 63.3°F17.4°C 53.7°F12.1°C 71% 4.6 mph N7.4 kmh N 13.8 mph22.2 kmh 31.83 in1077.9 mb - 0.00 in0.0 mm 0.01 in0.3 mm
03:35 PM 62.6°F17.0°C 53.4°F11.9°C 72% 4.6 mph NW7.4 kmh NW 4.6 mph7.4 kmh 31.83 in1077.9 mb - 0.00 in0.0 mm 0.01 in0.3 mm
03:40 PM 63.0°F17.2°C 53.4°F11.9°C 71% 4.6 mph W7.4 kmh W 6.9 mph11.1 kmh 31.83 in1077.9 mb - 0.00 in0.0 mm 0.01 in0.3 mm
03:45 PM 62.6°F17.0°C 53.1°F11.7°C 71% 6.9 mph NW11.1 kmh NW 6.9 mph11.1 kmh 31.83 in1077.9 mb - 0.00 in0.0 mm 0.01 in0.3 mm
03:50 PM 62.7°F17.1°C 53.9°F12.2°C 73% 4.6 mph NNW7.4 kmh NNW 9.2 mph14.8 kmh 31.83 in1077.9 mb - 0.00 in0.0 mm 0.01 in0.3 mm
03:55 PM 62.4°F16.9°C 53.6°F12.0°C 73% 5.8 mph N9.3 kmh N 9.2 mph14.8 kmh 31.83 in1077.9 mb - 0.00 in0.0 mm 0.01 in0.3 mm
04:00 PM 62.3°F16.8°C 53.5°F11.9°C 73% 5.8 mph NW9.3 kmh NW 6.9 mph11.1 kmh 31.83 in1077.9 mb - 0.00 in0.0 mm 0.01 in0.3 mm
04:10 PM 62.1°F16.7°C 53.7°F12.1°C 74% 5.8 mph NW9.3 kmh NW 5.8 mph9.3 kmh 31.83 in1077.9 mb - 0.00 in0.0 mm 0.01 in0.3 mm
04:15 PM 61.7°F16.5°C 53.3°F11.8°C 74% 8.1 mph N13.0 kmh N 10.4 mph16.7 kmh 31.83 in1077.9 mb - 0.00 in0.0 mm 0.01 in0.3 mm
04:20 PM 61.5°F16.4°C 53.5°F11.9°C 75% 9.2 mph N14.8 kmh N 12.7 mph20.4 kmh 31.83 in1077.9 mb - 0.00 in0.0 mm 0.01 in0.3 mm
04:25 PM 61.5°F16.4°C 53.5°F11.9°C 75% 9.2 mph NW14.8 kmh NW 10.4 mph16.7 kmh 31.83 in1077.9 mb - 0.00 in0.0 mm 0.01 in0.3 mm
04:30 PM 61.2°F16.2°C 53.2°F11.8°C 75% 9.2 mph W14.8 kmh W 8.1 mph13.0 kmh 31.83 in1077.9 mb - 0.00 in0.0 mm 0.01 in0.3 mm
04:35 PM 61.4°F16.3°C 53.7°F12.1°C 76% 6.9 mph N11.1 kmh N 8.1 mph13.0 kmh 31.83 in1077.9 mb - 0.00 in0.0 mm 0.01 in0.3 mm
04:40 PM 61.4°F16.3°C 53.4°F11.9°C 75% 6.9 mph NNW11.1 kmh NNW 8.1 mph13.0 kmh 31.83 in1077.9 mb - 0.00 in0.0 mm 0.01 in0.3 mm
04:45 PM 61.0°F16.1°C 53.4°F11.9°C 76% 9.2 mph N14.8 kmh N 11.5 mph18.5 kmh 31.83 in1077.9 mb - 0.00 in0.0 mm 0.01 in0.3 mm
04:50 PM 61.5°F16.4°C 53.5°F11.9°C 75% 6.9 mph NW11.1 kmh NW 9.2 mph14.8 kmh 31.83 in1077.9 mb - 0.00 in0.0 mm 0.01 in0.3 mm
04:55 PM 63.0°F17.2°C 54.6°F12.6°C 74% 9.2 mph NW14.8 kmh NW 10.4 mph16.7 kmh 31.83 in1077.9 mb - 0.00 in0.0 mm 0.01 in0.3 mm
05:00 PM 63.2°F17.3°C 53.7°F12.1°C 71% 8.1 mph N13.0 kmh N 9.2 mph14.8 kmh 31.83 in1077.9 mb - 0.00 in0.0 mm 0.01 in0.3 mm
05:10 PM 63.8°F17.7°C 53.4°F11.9°C 69% 9.2 mph NNW14.8 kmh NNW 9.2 mph14.8 kmh 31.83 in1077.9 mb - 0.00 in0.0 mm 0.01 in0.3 mm
05:15 PM 63.2°F17.3°C 53.3°F11.8°C 70% 10.4 mph N16.7 kmh N 16.1 mph25.9 kmh 31.83 in1077.9 mb - 0.00 in0.0 mm 0.01 in0.3 mm
05:20 PM 62.6°F17.0°C 52.7°F11.5°C 70% 11.5 mph NNW18.5 kmh NNW 16.1 mph25.9 kmh 31.83 in1077.9 mb - 0.00 in0.0 mm 0.01 in0.3 mm
05:25 PM 61.8°F16.6°C 53.1°F11.7°C 73% 8.1 mph N13.0 kmh N 10.4 mph16.7 kmh 31.83 in1077.9 mb - 0.00 in0.0 mm 0.01 in0.3 mm
05:30 PM 61.0°F16.1°C 52.6°F11.4°C 74% 10.4 mph N16.7 kmh N 12.7 mph20.4 kmh 31.83 in1077.9 mb - 0.00 in0.0 mm 0.01 in0.3 mm
05:35 PM 60.6°F15.9°C 53.0°F11.7°C 76% 8.1 mph NNW13.0 kmh NNW 9.2 mph14.8 kmh 31.83 in1077.9 mb - 0.00 in0.0 mm 0.01 in0.3 mm
05:40 PM 60.5°F15.8°C 52.5°F11.4°C 75% 8.1 mph NW13.0 kmh NW 10.4 mph16.7 kmh 31.83 in1077.9 mb - 0.00 in0.0 mm 0.01 in0.3 mm
05:45 PM 60.1°F15.6°C 52.5°F11.4°C 76% 9.2 mph N14.8 kmh N 10.4 mph16.7 kmh 31.83 in1077.9 mb - 0.00 in0.0 mm 0.01 in0.3 mm
05:50 PM 60.5°F15.8°C 52.9°F11.6°C 76% 4.6 mph NNW7.4 kmh NNW 6.9 mph11.1 kmh 31.83 in1077.9 mb - 0.00 in0.0 mm 0.01 in0.3 mm
05:55 PM 60.6°F15.9°C 53.0°F11.7°C 76% 5.8 mph NNW9.3 kmh NNW 6.9 mph11.1 kmh 31.83 in1077.9 mb - 0.00 in0.0 mm 0.01 in0.3 mm
06:00 PM 60.6°F15.9°C 53.0°F11.7°C 76% 4.6 mph NNE7.4 kmh NNE 5.8 mph9.3 kmh 31.83 in1077.9 mb - 0.00 in0.0 mm 0.01 in0.3 mm
06:10 PM 60.5°F15.8°C 52.9°F11.6°C 76% 5.8 mph N9.3 kmh N 5.8 mph9.3 kmh 31.83 in1077.9 mb - 0.00 in0.0 mm 0.01 in0.3 mm
06:15 PM 60.5°F15.8°C 52.9°F11.6°C 76% 6.9 mph N11.1 kmh N 10.4 mph16.7 kmh 31.83 in1077.9 mb - 0.00 in0.0 mm 0.01 in0.3 mm
06:20 PM 60.5°F15.8°C 52.9°F11.6°C 76% 9.2 mph N14.8 kmh N 11.5 mph18.5 kmh 31.83 in1077.9 mb - 0.00 in0.0 mm 0.01 in0.3 mm
06:25 PM 60.1°F15.6°C 52.5°F11.4°C 76% 6.9 mph N11.1 kmh N 10.4 mph16.7 kmh 31.83 in1077.9 mb - 0.00 in0.0 mm 0.01 in0.3 mm
06:30 PM 60.0°F15.6°C 52.7°F11.5°C 77% 8.1 mph N13.0 kmh N 10.4 mph16.7 kmh 31.83 in1077.9 mb - 0.00 in0.0 mm 0.01 in0.3 mm
06:35 PM 59.6°F15.3°C 52.4°F11.3°C 77% 10.4 mph N16.7 kmh N 12.7 mph20.4 kmh 31.83 in1077.9 mb - 0.00 in0.0 mm 0.01 in0.3 mm
06:40 PM 59.6°F15.3°C 52.0°F11.1°C 76% 12.7 mph N20.4 kmh N 13.8 mph22.2 kmh 31.83 in1077.9 mb - 0.00 in0.0 mm 0.01 in0.3 mm
06:45 PM 59.6°F15.3°C 52.4°F11.3°C 77% 8.1 mph N13.0 kmh N 11.5 mph18.5 kmh 31.83 in1077.9 mb - 0.00 in0.0 mm 0.01 in0.3 mm
06:50 PM 59.4°F15.2°C 51.8°F11.0°C 76% 10.4 mph N16.7 kmh N 16.1 mph25.9 kmh 31.83 in1077.9 mb - 0.00 in0.0 mm 0.01 in0.3 mm
06:55 PM 59.0°F15.0°C 51.4°F10.8°C 76% 12.7 mph NNE20.4 kmh NNE 15.0 mph24.1 kmh 31.83 in1077.9 mb - 0.00 in0.0 mm 0.01 in0.3 mm
07:00 PM 59.0°F15.0°C 50.7°F10.4°C 74% 11.5 mph N18.5 kmh N 11.5 mph18.5 kmh 31.83 in1077.9 mb - 0.00 in0.0 mm 0.01 in0.3 mm
07:10 PM 59.2°F15.1°C 50.5°F10.3°C 73% 10.4 mph WNW16.7 kmh WNW 9.2 mph14.8 kmh 31.83 in1077.9 mb - 0.00 in0.0 mm 0.01 in0.3 mm
07:15 PM 58.7°F14.8°C 50.4°F10.2°C 74% 6.9 mph N11.1 kmh N 10.4 mph16.7 kmh 31.83 in1077.9 mb - 0.00 in0.0 mm 0.01 in0.3 mm
07:20 PM 58.4°F14.7°C 50.1°F10.1°C 74% 13.8 mph N22.2 kmh N 16.1 mph25.9 kmh 31.83 in1077.9 mb - 0.00 in0.0 mm 0.01 in0.3 mm
07:25 PM 58.3°F14.6°C 50.4°F10.2°C 75% 8.1 mph N13.0 kmh N 8.1 mph13.0 kmh 31.83 in1077.9 mb - 0.00 in0.0 mm 0.01 in0.3 mm
07:30 PM 57.9°F14.4°C 50.0°F10.0°C 75% 9.2 mph N14.8 kmh N 13.8 mph22.2 kmh 31.83 in1077.9 mb - 0.00 in0.0 mm 0.01 in0.3 mm
07:35 PM 57.8°F14.3°C 50.2°F10.1°C 76% 8.1 mph N13.0 kmh N 12.7 mph20.4 kmh 31.83 in1077.9 mb - 0.00 in0.0 mm 0.01 in0.3 mm
07:40 PM 57.4°F14.1°C 49.9°F9.9°C 76% 9.2 mph N14.8 kmh N 11.5 mph18.5 kmh 31.83 in1077.9 mb - 0.00 in0.0 mm 0.01 in0.3 mm
07:45 PM 57.1°F13.9°C 49.6°F9.8°C 76% 10.4 mph N16.7 kmh N 12.7 mph20.4 kmh 31.83 in1077.9 mb - 0.00 in0.0 mm 0.01 in0.3 mm
07:50 PM 56.9°F13.8°C 49.7°F9.8°C 77% 9.2 mph NNW14.8 kmh NNW 9.2 mph14.8 kmh 31.83 in1077.9 mb - 0.00 in0.0 mm 0.01 in0.3 mm
07:55 PM 56.7°F13.7°C 49.5°F9.7°C 77% 12.7 mph N20.4 kmh N 16.1 mph25.9 kmh 31.83 in1077.9 mb - 0.00 in0.0 mm 0.01 in0.3 mm
08:00 PM 56.4°F13.6°C 49.6°F9.8°C 78% 16.1 mph N25.9 kmh N 19.6 mph31.5 kmh 31.83 in1077.9 mb - 0.00 in0.0 mm 0.01 in0.3 mm
08:10 PM 55.4°F13.0°C 48.6°F9.2°C 78% 17.3 mph N27.8 kmh N 18.4 mph29.6 kmh 31.83 in1077.9 mb - 0.00 in0.0 mm 0.01 in0.3 mm
08:15 PM 55.2°F12.9°C 48.4°F9.1°C 78% 12.7 mph N20.4 kmh N 16.1 mph25.9 kmh 31.83 in1077.9 mb - 0.00 in0.0 mm 0.01 in0.3 mm
08:20 PM 55.1°F12.8°C 48.3°F9.1°C 78% 10.4 mph NNE16.7 kmh NNE 10.4 mph16.7 kmh 31.83 in1077.9 mb - 0.00 in0.0 mm 0.01 in0.3 mm
08:25 PM 55.1°F12.8°C 48.3°F9.1°C 78% 8.1 mph N13.0 kmh N 10.4 mph16.7 kmh 31.83 in1077.9 mb - 0.00 in0.0 mm 0.01 in0.3 mm
08:30 PM 54.9°F12.7°C 48.1°F8.9°C 78% 10.4 mph N16.7 kmh N 12.7 mph20.4 kmh 31.83 in1077.9 mb - 0.00 in0.0 mm 0.01 in0.3 mm
08:35 PM 54.9°F12.7°C 48.1°F8.9°C 78% 8.1 mph N13.0 kmh N 9.2 mph14.8 kmh 31.83 in1077.9 mb - 0.00 in0.0 mm 0.01 in0.3 mm
08:40 PM 54.9°F12.7°C 48.5°F9.2°C 79% 9.2 mph N14.8 kmh N 10.4 mph16.7 kmh 31.83 in1077.9 mb - 0.00 in0.0 mm 0.01 in0.3 mm
08:45 PM 54.7°F12.6°C 48.3°F9.1°C 79% 6.9 mph NNW11.1 kmh NNW 12.7 mph20.4 kmh 31.83 in1077.9 mb - 0.00 in0.0 mm 0.01 in0.3 mm
08:50 PM 54.7°F12.6°C 48.3°F9.1°C 79% 6.9 mph NNW11.1 kmh NNW 9.2 mph14.8 kmh 31.83 in1077.9 mb - 0.00 in0.0 mm 0.01 in0.3 mm
08:55 PM 54.5°F12.5°C 48.1°F8.9°C 79% 5.8 mph N9.3 kmh N 8.1 mph13.0 kmh 31.83 in1077.9 mb - 0.00 in0.0 mm 0.01 in0.3 mm
09:00 PM 54.5°F12.5°C 48.1°F8.9°C 79% 5.8 mph N9.3 kmh N 6.9 mph11.1 kmh 31.83 in1077.9 mb - 0.00 in0.0 mm 0.01 in0.3 mm
09:10 PM 54.3°F12.4°C 48.2°F9.0°C 80% 4.6 mph N7.4 kmh N 6.9 mph11.1 kmh 31.83 in1077.9 mb - 0.00 in0.0 mm 0.01 in0.3 mm
09:15 PM 54.3°F12.4°C 48.2°F9.0°C 80% 3.5 mph N5.6 kmh N 4.6 mph7.4 kmh 31.83 in1077.9 mb - 0.00 in0.0 mm 0.01 in0.3 mm
09:20 PM 54.3°F12.4°C 48.2°F9.0°C 80% 3.5 mph NW5.6 kmh NW 4.6 mph7.4 kmh 31.83 in1077.9 mb - 0.00 in0.0 mm 0.01 in0.3 mm
09:25 PM 54.2°F12.3°C 48.5°F9.2°C 81% 4.6 mph NNW7.4 kmh NNW 6.9 mph11.1 kmh 31.83 in1077.9 mb - 0.00 in0.0 mm 0.01 in0.3 mm
09:30 PM 54.2°F12.3°C 48.5°F9.2°C 81% 3.5 mph N5.6 kmh N 4.6 mph7.4 kmh 31.83 in1077.9 mb - 0.00 in0.0 mm 0.01 in0.3 mm
09:35 PM 54.2°F12.3°C 48.5°F9.2°C 81% 4.6 mph N7.4 kmh N 6.9 mph11.1 kmh 31.83 in1077.9 mb - 0.00 in0.0 mm 0.01 in0.3 mm
09:40 PM 54.2°F12.3°C 48.8°F9.3°C 82% 6.9 mph N11.1 kmh N 8.1 mph13.0 kmh 31.83 in1077.9 mb - 0.00 in0.0 mm 0.01 in0.3 mm
09:45 PM 54.2°F12.3°C 48.8°F9.3°C 82% 6.9 mph N11.1 kmh N 8.1 mph13.0 kmh 31.83 in1077.9 mb - 0.00 in0.0 mm 0.01 in0.3 mm
09:50 PM 54.2°F12.3°C 48.8°F9.3°C 82% 5.8 mph 9.3 kmh 6.9 mph11.1 kmh 31.83 in1077.9 mb - 0.00 in0.0 mm 0.01 in0.3 mm
09:55 PM 54.2°F12.3°C 48.8°F9.3°C 82% 8.1 mph NW13.0 kmh NW 9.2 mph14.8 kmh 31.83 in1077.9 mb - 0.00 in0.0 mm 0.01 in0.3 mm
10:00 PM 54.2°F12.3°C 49.1°F9.5°C 83% 4.6 mph NNE7.4 kmh NNE 5.8 mph9.3 kmh 31.83 in1077.9 mb - 0.00 in0.0 mm 0.01 in0.3 mm
10:10 PM 54.0°F12.2°C 48.9°F9.4°C 83% 3.5 mph NNW5.6 kmh NNW 4.6 mph7.4 kmh 31.83 in1077.9 mb - 0.00 in0.0 mm 0.01 in0.3 mm
10:15 PM 54.0°F12.2°C 48.9°F9.4°C 83% 4.6 mph N7.4 kmh N 4.6 mph7.4 kmh 31.83 in1077.9 mb - 0.00 in0.0 mm 0.01 in0.3 mm
10:20 PM 54.0°F12.2°C 48.9°F9.4°C 83% 4.6 mph N7.4 kmh N 5.8 mph9.3 kmh 31.83 in1077.9 mb - 0.00 in0.0 mm 0.01 in0.3 mm
10:25 PM 54.0°F12.2°C 48.9°F9.4°C 83% 4.6 mph N7.4 kmh N 6.9 mph11.1 kmh 31.83 in1077.9 mb - 0.00 in0.0 mm 0.01 in0.3 mm
10:30 PM 54.0°F12.2°C 48.9°F9.4°C 83% 3.5 mph N5.6 kmh N 4.6 mph7.4 kmh 31.83 in1077.9 mb - 0.00 in0.0 mm 0.01 in0.3 mm
10:35 PM 54.0°F12.2°C 48.9°F9.4°C 83% 4.6 mph N7.4 kmh N 5.8 mph9.3 kmh 31.83 in1077.9 mb - 0.00 in0.0 mm 0.01 in0.3 mm
10:40 PM 54.0°F12.2°C 48.9°F9.4°C 83% 5.8 mph N9.3 kmh N 5.8 mph9.3 kmh 31.83 in1077.9 mb - 0.00 in0.0 mm 0.01 in0.3 mm
10:45 PM 54.0°F12.2°C 49.3°F9.6°C 84% 3.5 mph N5.6 kmh N 4.6 mph7.4 kmh 31.83 in1077.9 mb - 0.00 in0.0 mm 0.01 in0.3 mm
10:50 PM 53.9°F12.2°C 49.1°F9.5°C 84% 3.5 mph NNW5.6 kmh NNW 5.8 mph9.3 kmh 31.83 in1077.9 mb - 0.00 in0.0 mm 0.01 in0.3 mm
10:55 PM 53.8°F12.1°C 49.1°F9.5°C 84% 3.5 mph N5.6 kmh N 5.8 mph9.3 kmh 31.83 in1077.9 mb - 0.00 in0.0 mm 0.01 in0.3 mm
11:00 PM 53.8°F12.1°C 49.1°F9.5°C 84% 3.5 mph NW5.6 kmh NW 4.6 mph7.4 kmh 31.83 in1077.9 mb - 0.00 in0.0 mm 0.01 in0.3 mm
11:10 PM 53.6°F12.0°C 49.2°F9.6°C 85% 2.3 mph NNW3.7 kmh NNW 2.3 mph3.7 kmh 31.83 in1077.9 mb - 0.00 in0.0 mm 0.01 in0.3 mm
11:15 PM 53.6°F12.0°C 49.2°F9.6°C 85% 3.5 mph NW5.6 kmh NW 4.6 mph7.4 kmh 31.83 in1077.9 mb - 0.00 in0.0 mm 0.01 in0.3 mm
11:20 PM 53.6°F12.0°C 49.2°F9.6°C 85% 3.5 mph N5.6 kmh N 4.6 mph7.4 kmh 31.83 in1077.9 mb - 0.00 in0.0 mm 0.01 in0.3 mm
11:25 PM 53.6°F12.0°C 49.2°F9.6°C 85% 4.6 mph N7.4 kmh N 6.9 mph11.1 kmh 31.83 in1077.9 mb - 0.00 in0.0 mm 0.01 in0.3 mm
11:30 PM 53.6°F12.0°C 49.5°F9.7°C 86% 4.6 mph N7.4 kmh N 5.8 mph9.3 kmh 31.83 in1077.9 mb - 0.00 in0.0 mm 0.01 in0.3 mm
11:35 PM 53.6°F12.0°C 49.5°F9.7°C 86% 4.6 mph NNW7.4 kmh NNW 5.8 mph9.3 kmh 31.83 in1077.9 mb - 0.00 in0.0 mm 0.01 in0.3 mm
11:40 PM 53.6°F12.0°C 49.5°F9.7°C 86% 4.6 mph N7.4 kmh N 5.8 mph9.3 kmh 31.83 in1077.9 mb - 0.00 in0.0 mm 0.01 in0.3 mm
11:45 PM 53.6°F12.0°C 49.5°F9.7°C 86% 4.6 mph NNW7.4 kmh NNW 4.6 mph7.4 kmh 31.83 in1077.9 mb - 0.00 in0.0 mm 0.01 in0.3 mm
11:50 PM 53.6°F12.0°C 49.5°F9.7°C 86% 3.5 mph NNW5.6 kmh NNW 4.6 mph7.4 kmh 31.83 in1077.9 mb - 0.00 in0.0 mm 0.01 in0.3 mm
11:55 PM 53.6°F12.0°C 49.5°F9.7°C 86% 5.8 mph N9.3 kmh N 6.9 mph11.1 kmh 31.83 in1077.9 mb - 0.00 in0.0 mm 0.01 in0.3 mm